createdAt,value
2023-03-02T00:02:17.657Z,2.70
2023-03-02T00:04:50.296Z,2.80
2023-03-02T00:07:20.828Z,2.53
2023-03-02T00:09:47.662Z,2.55
2023-03-02T00:12:15.868Z,2.64
2023-03-02T00:14:42.757Z,2.36
2023-03-02T00:17:10.547Z,2.64
2023-03-02T00:19:37.894Z,2.66
2023-03-02T00:22:05.703Z,2.83
2023-03-02T00:24:32.612Z,2.76
2023-03-02T00:26:59.333Z,2.63
2023-03-02T00:29:26.007Z,2.64
2023-03-02T00:31:52.838Z,2.64
2023-03-02T00:34:19.635Z,2.44
2023-03-02T00:36:49.422Z,2.53
2023-03-02T00:39:19.970Z,2.64
2023-03-02T00:41:48.318Z,2.48
2023-03-02T00:44:17.739Z,2.75
2023-03-02T00:46:44.880Z,2.49
2023-03-02T00:49:12.847Z,2.42
2023-03-02T00:51:39.609Z,2.49
2023-03-02T00:54:06.552Z,2.44
2023-03-02T00:56:33.560Z,2.48
2023-03-02T00:59:05.832Z,2.39
2023-03-02T01:01:32.869Z,2.22
2023-03-02T01:03:59.513Z,2.38
2023-03-02T01:06:26.260Z,2.40
2023-03-02T01:08:52.917Z,2.47
2023-03-02T01:11:21.702Z,2.35
2023-03-02T01:13:50.231Z,2.37
2023-03-02T01:16:17.489Z,2.23
2023-03-02T01:18:44.327Z,2.17
2023-03-02T01:21:13.952Z,2.31
2023-03-02T01:23:40.681Z,2.44
2023-03-02T01:26:07.473Z,2.34
2023-03-02T01:28:34.249Z,2.22
2023-03-02T01:31:02.676Z,2.14
2023-03-02T01:33:29.433Z,2.27
2023-03-02T01:35:56.191Z,2.39
2023-03-02T01:38:23.018Z,2.30
2023-03-02T01:40:49.684Z,2.25
2023-03-02T01:43:16.988Z,2.32
2023-03-02T01:45:49.037Z,2.28
2023-03-02T01:48:18.253Z,2.46
2023-03-02T01:50:45.399Z,2.43
2023-03-02T01:53:15.569Z,2.55
2023-03-02T01:55:44.203Z,2.17
2023-03-02T01:58:13.645Z,2.31
2023-03-02T02:00:41.598Z,2.25
2023-03-02T02:03:23.371Z,2.10
2023-03-02T02:06:06.274Z,2.24
2023-03-02T02:08:33.795Z,2.26
2023-03-02T02:11:00.899Z,2.26
2023-03-02T02:13:27.790Z,2.17
2023-03-02T02:15:54.681Z,2.24
2023-03-02T02:18:21.476Z,2.29
2023-03-02T02:20:52.657Z,2.45
2023-03-02T02:23:28.314Z,2.34
2023-03-02T02:26:10.192Z,2.39
2023-03-02T02:28:58.526Z,2.39
2023-03-02T02:31:28.850Z,2.20
2023-03-02T02:34:00.884Z,2.27
2023-03-02T02:36:34.116Z,2.08
2023-03-02T02:39:04.915Z,2.16
2023-03-02T02:41:39.100Z,2.27
2023-03-02T02:44:06.419Z,2.30
2023-03-02T02:46:34.449Z,1.98
2023-03-02T02:49:03.383Z,2.01
2023-03-02T02:51:30.438Z,1.95
2023-03-02T02:54:02.109Z,1.96
2023-03-02T02:56:33.454Z,2.09
2023-03-02T02:59:08.461Z,2.10
2023-03-02T03:01:35.683Z,1.97
2023-03-02T03:04:04.604Z,1.88
2023-03-02T03:06:42.492Z,1.97
2023-03-02T03:09:12.815Z,1.97
2023-03-02T03:11:43.360Z,2.20
2023-03-02T03:14:25.032Z,2.22
2023-03-02T03:16:52.078Z,2.08
2023-03-02T03:19:32.803Z,2.09
2023-03-02T03:22:01.763Z,2.09
2023-03-02T03:24:31.598Z,2.07
2023-03-02T03:26:58.574Z,1.90
2023-03-02T03:29:28.289Z,2.17
2023-03-02T03:31:56.762Z,1.93
2023-03-02T03:34:24.574Z,2.06
2023-03-02T03:36:51.784Z,2.02
2023-03-02T03:39:18.879Z,2.12
2023-03-02T03:41:45.684Z,1.80
2023-03-02T03:44:12.499Z,1.90
2023-03-02T03:46:39.270Z,2.02
2023-03-02T03:49:06.220Z,1.91
2023-03-02T03:51:35.409Z,1.97
2023-03-02T03:54:04.257Z,1.96
2023-03-02T03:56:34.234Z,1.97
2023-03-02T03:59:07.523Z,2.06
2023-03-02T04:01:58.938Z,2.08
2023-03-02T04:04:32.464Z,2.17
2023-03-02T04:06:59.994Z,2.06
2023-03-02T04:09:27.101Z,2.08
2023-03-02T04:11:55.588Z,2.14
2023-03-02T04:14:23.941Z,2.05
2023-03-02T04:16:51.496Z,1.91
2023-03-02T04:19:18.291Z,2.10
2023-03-02T04:21:48.267Z,1.97
2023-03-02T04:24:16.418Z,2.03
2023-03-02T04:26:43.799Z,2.07
2023-03-02T04:29:10.831Z,2.06
2023-03-02T04:31:38.294Z,2.07
2023-03-02T04:34:05.888Z,1.97
2023-03-02T04:36:35.600Z,1.96
2023-03-02T04:39:04.170Z,1.93
2023-03-02T04:41:31.027Z,2.21
2023-03-02T04:43:57.915Z,2.23
2023-03-02T04:46:26.868Z,2.07
2023-03-02T04:48:54.486Z,2.08
2023-03-02T04:51:31.053Z,2.16
2023-03-02T04:54:01.233Z,2.22
2023-03-02T04:56:28.452Z,2.31
2023-03-02T04:58:55.856Z,2.26
2023-03-02T05:01:23.189Z,2.40
2023-03-02T05:03:50.378Z,2.20
2023-03-02T05:06:17.532Z,2.27
2023-03-02T05:08:44.556Z,2.28
2023-03-02T05:11:22.323Z,2.23
2023-03-02T05:13:50.995Z,2.20
2023-03-02T05:16:18.559Z,2.31
2023-03-02T05:18:45.884Z,2.14
2023-03-02T05:21:14.429Z,2.20
2023-03-02T05:23:42.829Z,2.14
2023-03-02T05:26:09.887Z,2.18
2023-03-02T05:28:36.687Z,2.02
2023-03-02T05:31:03.856Z,2.16
2023-03-02T05:33:30.870Z,2.07
2023-03-02T05:35:57.748Z,2.09
2023-03-02T05:38:24.844Z,2.14
2023-03-02T05:40:51.677Z,2.12
2023-03-02T05:43:21.357Z,2.18
2023-03-02T05:45:48.060Z,2.08
2023-03-02T05:48:15.531Z,2.00
2023-03-02T05:50:42.768Z,2.07
2023-03-02T05:53:09.449Z,2.07
2023-03-02T05:55:37.209Z,2.07
2023-03-02T05:58:09.180Z,2.04
2023-03-02T06:00:36.193Z,2.24
2023-03-02T06:03:03.144Z,2.10
2023-03-02T06:05:29.963Z,2.05
2023-03-02T06:07:56.796Z,2.07
2023-03-02T06:10:24.433Z,1.99
2023-03-02T06:12:51.392Z,2.06
2023-03-02T06:15:18.406Z,2.01
2023-03-02T06:17:45.473Z,2.00
2023-03-02T06:20:13.152Z,2.00
2023-03-02T06:22:42.104Z,2.14
2023-03-02T06:25:10.537Z,2.06
2023-03-02T06:27:39.176Z,2.16
2023-03-02T06:30:14.230Z,2.06
2023-03-02T06:32:41.902Z,1.97
2023-03-02T06:35:09.492Z,2.02
2023-03-02T06:37:36.842Z,2.09
2023-03-02T06:40:08.648Z,2.08
2023-03-02T06:42:35.314Z,2.11
2023-03-02T06:45:02.333Z,2.18
2023-03-02T06:47:29.017Z,2.09
2023-03-02T06:49:56.606Z,2.38
2023-03-02T06:52:23.238Z,2.35
2023-03-02T06:54:49.906Z,2.18
2023-03-02T06:57:16.838Z,2.00
2023-03-02T06:59:43.646Z,2.19
2023-03-02T07:02:11.187Z,2.35
2023-03-02T07:04:38.100Z,2.36
2023-03-02T07:07:05.002Z,2.32
2023-03-02T07:09:34.817Z,2.09
2023-03-02T07:12:01.673Z,2.19
2023-03-02T07:14:28.427Z,2.10
2023-03-02T07:16:57.509Z,2.03
2023-03-02T07:19:25.193Z,2.14
2023-03-02T07:21:51.848Z,2.20
2023-03-02T07:24:18.587Z,2.07
2023-03-02T07:26:45.398Z,2.30
2023-03-02T07:29:12.166Z,2.45
2023-03-02T07:31:39.085Z,2.45
2023-03-02T07:34:05.812Z,2.36
2023-03-02T07:36:32.600Z,2.41
2023-03-02T07:38:59.284Z,2.40
2023-03-02T07:41:26.009Z,2.37
2023-03-02T07:43:52.679Z,2.48
2023-03-02T07:46:19.434Z,2.64
2023-03-02T07:48:46.218Z,2.73
2023-03-02T07:51:13.035Z,2.77
2023-03-02T07:53:39.699Z,2.76
2023-03-02T07:56:11.216Z,2.85
2023-03-02T07:58:38.472Z,2.85
2023-03-02T08:01:05.414Z,2.84
2023-03-02T08:03:34.751Z,2.89
2023-03-02T08:06:09.913Z,2.92
2023-03-02T08:08:37.269Z,3.06
2023-03-02T08:11:10.826Z,3.03
2023-03-02T08:13:38.116Z,2.99
2023-03-02T08:16:07.379Z,2.90
2023-03-02T08:18:34.453Z,2.90
2023-03-02T08:21:01.373Z,3.05
2023-03-02T08:23:28.404Z,3.07
2023-03-02T08:25:55.651Z,3.09
2023-03-02T08:28:23.320Z,3.12
2023-03-02T08:30:57.090Z,3.09
2023-03-02T08:33:24.199Z,3.17
2023-03-02T08:35:56.075Z,3.12
2023-03-02T08:38:23.768Z,3.00
2023-03-02T08:40:52.284Z,3.53
2023-03-02T08:43:24.785Z,3.15
2023-03-02T08:45:53.455Z,3.07
2023-03-02T08:48:22.193Z,3.01
2023-03-02T08:51:00.184Z,2.98
2023-03-02T08:53:28.463Z,2.87
2023-03-02T08:55:55.886Z,2.97
2023-03-02T08:58:22.882Z,3.09
2023-03-02T09:00:49.807Z,2.93
2023-03-02T09:03:17.003Z,2.99
2023-03-02T09:05:44.090Z,3.02
2023-03-02T09:08:11.510Z,3.00
2023-03-02T09:10:38.605Z,2.98
2023-03-02T09:13:08.046Z,3.26
2023-03-02T09:15:35.036Z,3.34
2023-03-02T09:18:02.079Z,3.51
2023-03-02T09:20:28.782Z,3.58
2023-03-02T09:22:55.538Z,3.81
2023-03-02T09:25:22.263Z,3.70
2023-03-02T09:27:49.034Z,4.03
2023-03-02T09:30:16.378Z,3.81
2023-03-02T09:32:43.191Z,3.85
2023-03-02T09:35:10.140Z,3.78
2023-03-02T09:37:38.832Z,3.74
2023-03-02T09:40:16.424Z,3.41
2023-03-02T09:42:59.784Z,3.73
2023-03-02T09:45:57.433Z,3.76
2023-03-02T09:48:45.664Z,3.98
2023-03-02T09:51:28.080Z,3.93
2023-03-02T09:54:07.919Z,4.03
2023-03-02T09:56:39.681Z,4.13
2023-03-02T09:59:24.392Z,3.90
2023-03-02T10:01:56.317Z,3.84
2023-03-02T10:04:33.418Z,3.77
2023-03-02T10:07:12.844Z,3.66
2023-03-02T10:09:40.909Z,3.84
2023-03-02T10:12:39.061Z,4.25
2023-03-02T10:15:10.465Z,4.28
2023-03-02T10:17:51.925Z,4.20
2023-03-02T10:20:34.602Z,4.03
2023-03-02T10:23:31.442Z,3.78
2023-03-02T10:26:23.460Z,4.08
2023-03-02T10:28:57.846Z,4.53
2023-03-02T10:31:28.826Z,4.68
2023-03-02T10:33:56.414Z,4.41
2023-03-02T10:36:29.839Z,4.42
2023-03-02T10:38:58.104Z,4.48
2023-03-02T10:41:41.154Z,4.47
2023-03-02T10:44:29.907Z,4.78
2023-03-02T10:46:56.592Z,4.36
2023-03-02T10:49:29.763Z,4.44
2023-03-02T10:52:02.385Z,5.01
2023-03-02T10:54:31.437Z,4.51
2023-03-02T10:57:04.705Z,4.31
2023-03-02T10:59:47.539Z,4.47
2023-03-02T11:02:18.498Z,4.15
2023-03-02T11:04:47.868Z,4.72
2023-03-02T11:07:20.006Z,4.33
2023-03-02T11:10:00.063Z,4.45
2023-03-02T11:12:26.983Z,4.30
2023-03-02T11:15:18.820Z,4.17
2023-03-02T11:17:50.784Z,4.42
2023-03-02T11:20:26.113Z,4.57
2023-03-02T11:23:14.153Z,4.51
2023-03-02T11:25:48.516Z,4.15
2023-03-02T11:28:30.449Z,4.27
2023-03-02T11:30:59.157Z,4.02
2023-03-02T11:33:35.555Z,4.56
2023-03-02T11:36:17.654Z,4.37
2023-03-02T11:38:50.465Z,4.48
2023-03-02T11:41:30.603Z,4.59
2023-03-02T11:44:01.497Z,4.59
2023-03-02T11:46:32.460Z,5.12
2023-03-02T11:49:17.643Z,5.33
2023-03-02T11:51:58.470Z,5.01
2023-03-02T11:54:36.716Z,4.82
2023-03-02T11:57:04.027Z,5.07
2023-03-02T11:59:32.437Z,5.29
2023-03-02T12:02:00.844Z,5.12
2023-03-02T12:04:29.714Z,5.19
2023-03-02T12:06:56.590Z,5.14
2023-03-02T12:09:23.345Z,5.23
2023-03-02T12:12:00.693Z,6.07
2023-03-02T12:14:37.219Z,5.98
2023-03-02T12:17:25.784Z,5.95
2023-03-02T12:20:10.060Z,6.08
2023-03-02T12:22:37.766Z,5.43
2023-03-02T12:25:26.783Z,5.35
2023-03-02T12:27:55.174Z,5.90
2023-03-02T12:30:28.266Z,5.71
2023-03-02T12:33:10.259Z,5.58
2023-03-02T12:35:38.552Z,5.90
2023-03-02T12:38:18.165Z,6.17
2023-03-02T12:41:04.361Z,6.02
2023-03-02T12:43:31.162Z,6.11
2023-03-02T12:46:33.626Z,6.52
2023-03-02T12:49:10.165Z,6.61
2023-03-02T12:51:57.906Z,6.46
2023-03-02T12:54:27.304Z,5.78
2023-03-02T12:57:17.286Z,6.16
2023-03-02T12:59:51.877Z,5.74
2023-03-02T13:02:21.599Z,5.46
2023-03-02T13:05:03.497Z,5.26
2023-03-02T13:07:41.229Z,5.99
2023-03-02T13:10:36.150Z,5.91
2023-03-02T13:13:14.026Z,5.83
2023-03-02T13:16:08.548Z,6.12
2023-03-02T13:18:39.410Z,5.95
2023-03-02T13:21:06.516Z,6.19
2023-03-02T13:23:34.220Z,6.45
2023-03-02T13:26:03.733Z,6.20
2023-03-02T13:28:32.159Z,6.41
2023-03-02T13:31:21.122Z,6.53
2023-03-02T13:33:50.353Z,6.48
2023-03-02T13:36:28.657Z,6.79
2023-03-02T13:38:59.326Z,6.83
2023-03-02T13:41:34.606Z,6.72
2023-03-02T13:44:19.671Z,6.82
2023-03-02T13:46:47.563Z,6.92
2023-03-02T13:49:14.492Z,6.65
2023-03-02T13:51:44.463Z,6.54
2023-03-02T13:54:25.511Z,6.54
2023-03-02T13:56:53.813Z,7.08
2023-03-02T13:59:21.850Z,7.18
2023-03-02T14:01:48.949Z,6.82
2023-03-02T14:04:19.219Z,7.04
2023-03-02T14:06:46.034Z,7.09
2023-03-02T14:09:13.346Z,6.82
2023-03-02T14:12:06.729Z,6.95
2023-03-02T14:14:37.864Z,7.20
2023-03-02T14:17:13.830Z,7.31
2023-03-02T14:19:40.635Z,7.17
2023-03-02T14:22:10.879Z,7.25
2023-03-02T14:24:37.549Z,7.17
2023-03-02T14:27:04.204Z,7.09
2023-03-02T14:29:38.956Z,7.04
2023-03-02T14:32:11.039Z,6.99
2023-03-02T14:34:41.903Z,7.14
2023-03-02T14:37:15.616Z,7.24
2023-03-02T14:39:56.821Z,7.56
2023-03-02T14:42:24.037Z,7.54
2023-03-02T14:44:51.844Z,7.65
2023-03-02T14:47:19.710Z,7.35
2023-03-02T14:49:47.378Z,7.70
2023-03-02T14:52:14.044Z,7.69
2023-03-02T14:54:40.789Z,7.94
2023-03-02T14:57:17.338Z,7.77
2023-03-02T14:59:44.048Z,7.72
2023-03-02T15:02:24.408Z,7.57
2023-03-02T15:04:56.023Z,7.88
2023-03-02T15:07:24.198Z,7.58
2023-03-02T15:09:50.858Z,7.64
2023-03-02T15:12:17.674Z,7.69
2023-03-02T15:14:44.324Z,7.44
2023-03-02T15:17:11.107Z,7.75
2023-03-02T15:19:37.903Z,7.87
2023-03-02T15:22:04.818Z,7.73
2023-03-02T15:24:33.422Z,7.91
2023-03-02T15:27:00.512Z,7.78
2023-03-02T15:29:27.291Z,7.49
2023-03-02T15:31:54.151Z,7.62
2023-03-02T15:34:21.344Z,7.38
2023-03-02T15:36:48.010Z,7.70
2023-03-02T15:39:16.483Z,7.25
2023-03-02T15:41:43.508Z,7.55
2023-03-02T15:44:21.829Z,7.43
2023-03-02T15:46:49.671Z,7.06
2023-03-02T15:49:16.382Z,7.03
2023-03-02T15:51:43.191Z,6.93
2023-03-02T15:54:10.911Z,6.89
2023-03-02T15:56:44.028Z,7.00
2023-03-02T15:59:12.036Z,6.98
2023-03-02T16:01:38.868Z,6.84
2023-03-02T16:04:05.618Z,6.72
2023-03-02T16:06:32.536Z,6.59
2023-03-02T16:08:59.156Z,6.69
2023-03-02T16:11:25.906Z,6.57
2023-03-02T16:13:52.889Z,6.48
2023-03-02T16:16:20.898Z,6.37
2023-03-02T16:18:54.539Z,6.27
2023-03-02T16:21:21.926Z,6.13
2023-03-02T16:23:48.887Z,6.08
2023-03-02T16:26:19.510Z,6.01
2023-03-02T16:28:47.027Z,5.91
2023-03-02T16:31:26.979Z,5.84
2023-03-02T16:33:57.490Z,5.65
2023-03-02T16:36:24.353Z,5.50
2023-03-02T16:38:51.288Z,5.36
2023-03-02T16:41:20.820Z,5.18
2023-03-02T16:43:55.975Z,5.11
2023-03-02T16:46:24.358Z,4.93
2023-03-02T16:48:51.428Z,4.79
2023-03-02T16:51:18.993Z,4.66
2023-03-02T16:53:46.231Z,4.52
2023-03-02T16:56:13.493Z,4.39
2023-03-02T16:58:42.018Z,4.23
2023-03-02T17:01:11.996Z,4.10
2023-03-02T17:03:39.055Z,3.95
2023-03-02T17:06:07.039Z,3.83
2023-03-02T17:08:34.026Z,3.71
2023-03-02T17:11:00.935Z,3.62
2023-03-02T17:13:27.944Z,3.46
2023-03-02T17:15:55.067Z,3.33
2023-03-02T17:18:21.803Z,3.24
2023-03-02T17:20:52.173Z,3.13
2023-03-02T17:23:19.242Z,3.05
2023-03-02T17:25:45.878Z,2.94
2023-03-02T17:28:14.905Z,2.83
2023-03-02T17:30:42.467Z,2.80
2023-03-02T17:33:09.694Z,2.71
2023-03-02T17:35:36.439Z,2.66
2023-03-02T17:38:03.170Z,2.59
2023-03-02T17:40:29.959Z,2.54
2023-03-02T17:42:57.844Z,2.44
2023-03-02T17:45:27.279Z,2.40
2023-03-02T17:47:55.171Z,2.26
2023-03-02T17:50:22.487Z,2.24
2023-03-02T17:52:49.741Z,2.13
2023-03-02T17:55:16.787Z,2.00
2023-03-02T17:57:43.557Z,1.97
2023-03-02T18:00:14.161Z,1.96
2023-03-02T18:02:40.918Z,1.90
2023-03-02T18:05:10.089Z,1.87
2023-03-02T18:07:37.529Z,1.87
2023-03-02T18:10:05.395Z,1.80
2023-03-02T18:12:32.773Z,1.74
2023-03-02T18:14:59.546Z,1.72
2023-03-02T18:17:26.242Z,1.69
2023-03-02T18:19:52.936Z,1.68
2023-03-02T18:22:21.508Z,1.66
2023-03-02T18:24:48.633Z,1.63
2023-03-02T18:27:15.370Z,1.59
2023-03-02T18:29:42.034Z,1.54
2023-03-02T18:32:10.316Z,1.53
2023-03-02T18:34:37.065Z,1.47
2023-03-02T18:37:03.761Z,1.26
2023-03-02T18:39:30.553Z,1.32
2023-03-02T18:41:57.216Z,1.33
2023-03-02T18:44:27.903Z,1.01
2023-03-02T18:46:55.829Z,1.09
2023-03-02T18:49:23.581Z,1.13
2023-03-02T18:51:50.342Z,1.12
2023-03-02T18:54:16.996Z,1.12
2023-03-02T18:56:43.755Z,1.06
2023-03-02T18:59:11.200Z,0.97
2023-03-02T19:01:38.075Z,0.99
2023-03-02T19:04:05.099Z,1.02
2023-03-02T19:06:32.559Z,1.01
2023-03-02T19:08:59.238Z,0.97
2023-03-02T19:11:26.411Z,0.90
2023-03-02T19:13:53.169Z,0.59
2023-03-02T19:16:19.950Z,0.69
2023-03-02T19:18:46.879Z,0.73
2023-03-02T19:21:13.582Z,0.76
2023-03-02T19:23:41.124Z,0.79
2023-03-02T19:26:09.161Z,0.80
2023-03-02T19:28:37.211Z,0.75
2023-03-02T19:31:08.855Z,0.73
2023-03-02T19:33:36.453Z,0.71
2023-03-02T19:36:04.070Z,0.69
2023-03-02T19:38:31.186Z,0.70
2023-03-02T19:40:59.524Z,0.66
2023-03-02T19:43:27.399Z,0.52
2023-03-02T19:45:54.908Z,0.34
2023-03-02T19:48:21.770Z,0.42
2023-03-02T19:50:48.777Z,0.49
2023-03-02T19:53:17.158Z,0.49
2023-03-02T19:55:44.802Z,0.46
2023-03-02T19:58:17.426Z,0.46
2023-03-02T20:00:46.114Z,0.45
2023-03-02T20:03:13.617Z,0.36
2023-03-02T20:05:40.400Z,0.35
2023-03-02T20:08:07.763Z,0.39
2023-03-02T20:10:43.809Z,0.38
2023-03-02T20:13:11.405Z,0.38
2023-03-02T20:15:41.824Z,0.36
2023-03-02T20:18:11.339Z,0.34
2023-03-02T20:20:38.060Z,0.30
2023-03-02T20:23:04.918Z,0.32
2023-03-02T20:25:32.036Z,0.31
2023-03-02T20:27:58.860Z,0.18
2023-03-02T20:30:31.160Z,0.21
2023-03-02T20:32:59.654Z,0.15
2023-03-02T20:35:27.618Z,0.16
2023-03-02T20:37:55.800Z,0.20
2023-03-02T20:40:25.207Z,0.21
2023-03-02T20:42:52.235Z,0.29
2023-03-02T20:45:19.372Z,0.34
2023-03-02T20:47:47.234Z,0.33
2023-03-02T20:50:18.930Z,0.21
2023-03-02T20:52:45.754Z,0.23
2023-03-02T20:55:12.716Z,0.17
2023-03-02T20:57:39.836Z,0.17
2023-03-02T21:00:16.361Z,0.20
2023-03-02T21:02:46.757Z,0.15
2023-03-02T21:05:15.510Z,0.11
2023-03-02T21:07:43.107Z,0.17
2023-03-02T21:10:11.365Z,0.18
2023-03-02T21:12:38.127Z,-0.06
2023-03-02T21:15:05.517Z,-0.17
2023-03-02T21:17:32.264Z,-0.05
2023-03-02T21:19:59.007Z,-0.02
2023-03-02T21:22:25.740Z,-0.09
2023-03-02T21:24:55.722Z,-0.16
2023-03-02T21:27:22.693Z,-0.26
2023-03-02T21:29:49.808Z,-0.25
2023-03-02T21:32:16.630Z,-0.19
2023-03-02T21:34:44.873Z,-0.14
2023-03-02T21:37:11.574Z,-0.14
2023-03-02T21:39:38.341Z,-0.12
2023-03-02T21:42:05.232Z,-0.16
2023-03-02T21:44:32.351Z,-0.12
2023-03-02T21:46:59.261Z,-0.13
2023-03-02T21:49:26.397Z,-0.11
2023-03-02T21:51:53.243Z,-0.15
2023-03-02T21:54:19.883Z,-0.03
2023-03-02T21:56:46.626Z,0.07
2023-03-02T21:59:13.348Z,0.19
2023-03-02T22:01:40.083Z,0.29
2023-03-02T22:04:06.949Z,0.36
2023-03-02T22:06:34.731Z,0.42
2023-03-02T22:09:02.133Z,0.52
2023-03-02T22:11:31.971Z,0.59
2023-03-02T22:14:02.670Z,0.62
2023-03-02T22:16:35.833Z,0.71
2023-03-02T22:19:18.330Z,0.76
2023-03-02T22:21:48.161Z,0.86
2023-03-02T22:24:24.704Z,0.92
2023-03-02T22:27:08.961Z,0.88
2023-03-02T22:29:42.136Z,0.79
2023-03-02T22:32:23.135Z,0.99
2023-03-02T22:34:58.079Z,1.09
2023-03-02T22:37:28.117Z,1.13
2023-03-02T22:39:57.469Z,1.37
2023-03-02T22:42:27.109Z,1.65
2023-03-02T22:45:06.357Z,1.79
2023-03-02T22:47:33.036Z,2.07
2023-03-02T22:50:17.755Z,2.15
2023-03-02T22:52:45.350Z,2.20
2023-03-02T22:55:34.782Z,2.21
2023-03-02T22:58:17.442Z,2.17
2023-03-02T23:00:44.174Z,2.19
2023-03-02T23:03:22.520Z,2.19
2023-03-02T23:05:53.087Z,1.98
2023-03-02T23:08:22.678Z,2.10
2023-03-02T23:10:51.539Z,2.12
2023-03-02T23:13:21.215Z,2.16
2023-03-02T23:15:48.784Z,2.14
2023-03-02T23:18:18.368Z,2.07
2023-03-02T23:20:45.070Z,1.82
2023-03-02T23:23:11.801Z,1.43
2023-03-02T23:25:38.464Z,1.33
2023-03-02T23:28:05.493Z,1.45
2023-03-02T23:30:32.191Z,1.35
2023-03-02T23:32:58.860Z,1.51
2023-03-02T23:35:26.940Z,1.46
2023-03-02T23:37:53.712Z,1.42
2023-03-02T23:40:23.272Z,1.40
2023-03-02T23:42:50.625Z,1.39
2023-03-02T23:45:17.769Z,1.33
2023-03-02T23:47:44.698Z,1.36
2023-03-02T23:50:13.020Z,1.34
2023-03-02T23:52:41.054Z,1.25
2023-03-02T23:55:09.176Z,1.16
2023-03-02T23:57:35.857Z,1.15
